Time;durP1;ratioP1;P1;durP2;ratioP2;P2;SDS_P1;SDS_P2;PMS_P1;PMS_P2;Temp;Humidity;BMP_temperature;BMP_pressure;BME280_temperature;BME280_humidity;BME280_pressure;Samples;Min_cycle;Max_cycle;Signal;HPM_P1;HPM_P2
2022/12/12 00:00:35;;;;;;;31.80;14.67;;;;;;;3.77;64.72;100033.25;5135068;27;20219;-67
2022/12/12 00:03:04;;;;;;;36.00;16.63;;;;;;;3.66;64.66;100035.81;5142223;27;20589;-67
2022/12/12 00:05:32;;;;;;;40.10;16.90;;;;;;;3.58;65.12;100031.16;5137648;27;20218;-66
2022/12/12 00:08:00;;;;;;;37.80;15.53;;;;;;;3.60;65.34;100036.28;5134688;27;20579;-67
2022/12/12 00:10:28;;;;;;;37.27;16.37;;;;;;;3.63;65.17;100042.13;5131881;27;20816;-66
2022/12/12 00:12:56;;;;;;;36.53;16.33;;;;;;;3.75;65.05;100040.38;5140246;27;20309;-67
2022/12/12 00:15:23;;;;;;;31.90;15.47;;;;;;;3.86;64.53;100037.78;5139944;27;20205;-66
2022/12/12 00:17:51;;;;;;;30.90;13.77;;;;;;;3.88;63.88;100043.72;5140722;27;21214;-68
2022/12/12 00:20:20;;;;;;;32.67;15.10;;;;;;;3.82;63.68;100041.59;5138307;27;20628;-66
2022/12/12 00:22:48;;;;;;;28.93;14.10;;;;;;;3.67;64.29;100038.34;5136653;27;20230;-68
2022/12/12 00:25:16;;;;;;;29.83;13.07;;;;;;;3.61;63.76;100040.56;5140522;27;20221;-66
2022/12/12 00:27:43;;;;;;;31.70;13.93;;;;;;;3.44;64.68;100033.94;5134435;27;20298;-66
2022/12/12 00:30:12;;;;;;;28.13;13.53;;;;;;;3.61;64.28;100037.94;5124949;27;20208;-67
2022/12/12 00:32:40;;;;;;;28.27;12.97;;;;;;;3.56;63.99;100034.81;5126113;27;20564;-67
2022/12/12 00:35:08;;;;;;;22.93;12.03;;;;;;;3.50;64.45;100036.13;5129283;27;20215;-68
2022/12/12 00:37:37;;;;;;;26.90;11.93;;;;;;;3.61;64.29;100033.53;5129888;27;20233;-68
2022/12/12 00:40:07;;;;;;;24.97;11.13;;;;;;;3.67;63.50;100035.72;5122516;27;20227;-68
2022/12/12 00:42:34;;;;;;;22.70;10.67;;;;;;;3.69;63.09;100030.34;5120150;27;20234;-67
2022/12/12 00:45:04;;;;;;;19.20;9.70;;;;;;;3.59;62.50;100040.69;5128891;27;20205;-66
2022/12/12 00:47:32;;;;;;;21.23;9.87;;;;;;;3.54;62.59;100039.34;5123702;27;20208;-67
2022/12/12 00:50:00;;;;;;;23.50;10.47;;;;;;;3.71;62.42;100045.00;5126955;27;20208;-66
2022/12/12 00:52:27;;;;;;;26.57;10.97;;;;;;;3.75;62.29;100040.38;5125593;27;20208;-67
2022/12/12 00:54:57;;;;;;;20.50;9.90;;;;;;;3.67;61.77;100040.13;5123961;27;20229;-67
2022/12/12 00:57:25;;;;;;;17.40;8.27;;;;;;;3.50;61.92;100040.53;5126623;27;20217;-67
2022/12/12 00:59:53;;;;;;;20.40;8.70;;;;;;;3.54;62.49;100047.22;5122557;27;20645;-67
2022/12/12 01:02:20;;;;;;;21.63;9.07;;;;;;;3.67;61.97;100043.56;5123749;27;20656;-66
2022/12/12 01:04:54;;;;;;;17.73;8.23;;;;;;;3.75;61.58;100045.63;5125844;27;20219;-67
2022/12/12 01:07:22;;;;;;;18.90;9.07;;;;;;;3.85;61.41;100048.38;5128235;27;20222;-68
2022/12/12 01:09:50;;;;;;;17.73;8.33;;;;;;;3.92;60.94;100049.59;5125901;27;20211;-67
2022/12/12 01:12:19;;;;;;;16.93;8.33;;;;;;;3.91;60.71;100050.53;5128216;27;20234;-67
2022/12/12 01:14:47;;;;;;;14.93;6.97;;;;;;;3.81;60.40;100053.03;5129306;27;20237;-67
2022/12/12 01:17:14;;;;;;;15.80;7.77;;;;;;;3.77;60.06;100054.22;5121418;27;20500;-67
2022/12/12 01:19:42;;;;;;;16.43;8.10;;;;;;;3.63;59.72;100049.16;5118288;27;20564;-67
2022/12/12 01:22:10;;;;;;;15.57;7.80;;;;;;;3.64;60.24;100056.06;5137147;27;20257;-67
2022/12/12 01:24:37;;;;;;;17.37;7.70;;;;;;;3.63;59.94;100059.63;5124361;27;21290;-67
2022/12/12 01:27:05;;;;;;;17.33;7.30;;;;;;;3.70;60.09;100066.09;5124758;27;20210;-67
2022/12/12 01:29:35;;;;;;;13.60;7.20;;;;;;;3.79;59.58;100073.28;5139858;27;20202;-67
2022/12/12 01:32:03;;;;;;;15.63;7.37;;;;;;;3.65;60.14;100068.22;5142588;27;20202;-67
2022/12/12 01:34:30;;;;;;;15.37;6.53;;;;;;;3.49;60.21;100075.56;5141482;27;20204;-67
2022/12/12 01:36:58;;;;;;;12.40;6.33;;;;;;;3.39;60.27;100068.38;5141204;27;20215;-67
2022/12/12 01:39:26;;;;;;;18.43;7.50;;;;;;;3.27;60.95;100071.88;5134461;27;20322;-67
2022/12/12 01:41:54;;;;;;;14.93;6.87;;;;;;;3.22;61.17;100074.00;5145924;27;20651;-67
2022/12/12 01:44:43;;;;;;;15.93;7.03;;;;;;;3.21;61.47;100074.94;5143710;27;20229;-67
2022/12/12 01:47:13;;;;;;;17.97;6.77;;;;;;;3.16;61.51;100069.22;5139245;27;20214;-66
2022/12/12 01:49:44;;;;;;;14.00;6.90;;;;;;;3.13;61.45;100069.41;5141927;27;20204;-67
2022/12/12 01:52:17;;;;;;;14.80;6.67;;;;;;;3.19;61.13;100074.22;5147258;27;20218;-68
2022/12/12 01:54:50;;;;;;;19.20;7.57;;;;;;;3.29;60.92;100077.84;5150077;27;20294;-69
2022/12/12 01:57:21;;;;;;;13.53;6.83;;;;;;;3.35;60.77;100080.00;5135340;27;20700;-68
2022/12/12 01:59:51;;;;;;;16.07;7.27;;;;;;;3.54;60.21;100084.75;5141298;27;20218;-67
2022/12/12 02:02:18;;;;;;;15.90;7.00;;;;;;;3.71;59.66;100075.63;5144173;27;20671;-69
2022/12/12 02:04:46;;;;;;;16.73;7.23;;;;;;;3.84;59.27;100086.06;5146339;27;20698;-68
2022/12/12 02:07:16;;;;;;;13.80;6.50;;;;;;;3.84;58.83;100080.81;5143874;27;20202;-68
2022/12/12 02:09:44;;;;;;;14.33;6.03;;;;;;;3.73;58.83;100078.97;5128656;27;20200;-68
2022/12/12 02:12:13;;;;;;;14.77;6.60;;;;;;;3.70;59.27;100084.44;5134756;27;20773;-67
2022/12/12 02:14:45;;;;;;;14.87;6.23;;;;;;;3.60;59.10;100084.31;5129648;27;20199;-68
2022/12/12 02:17:30;;;;;;;16.90;6.57;;;;;;;3.58;59.60;100091.44;5138582;27;20202;-68
2022/12/12 02:20:39;;;;;;;13.77;5.97;;;;;;;3.55;59.52;100091.66;5141571;27;20299;-68
2022/12/12 02:23:49;;;;;;;13.77;5.70;;;;;;;3.34;60.17;100094.06;5142231;27;20227;-67
2022/12/12 02:26:44;;;;;;;15.80;6.47;;;;;;;3.46;60.07;100091.50;5088414;27;20206;-67
2022/12/12 02:29:46;;;;;;;14.67;5.93;;;;;;;3.40;60.15;100093.63;5139967;27;21115;-66
2022/12/12 02:32:24;;;;;;;15.43;6.73;;;;;;;3.37;60.25;100088.59;5124947;27;20210;-67
2022/12/12 02:35:02;;;;;;;13.97;6.30;;;;;;;3.24;60.79;100092.25;5133256;27;20252;-67
2022/12/12 02:37:34;;;;;;;14.67;5.97;;;;;;;3.19;60.72;100095.16;5132130;27;20302;-67
2022/12/12 02:40:13;;;;;;;14.77;6.00;;;;;;;3.15;60.72;100092.91;5130634;27;20204;-67
2022/12/12 02:42:45;;;;;;;14.23;6.27;;;;;;;3.15;60.97;100103.38;5137348;27;20569;-66
2022/12/12 02:45:20;;;;;;;18.50;7.43;;;;;;;3.10;60.87;100095.00;5137985;27;21609;-66
2022/12/12 02:47:55;;;;;;;16.27;6.80;;;;;;;3.15;60.90;100104.22;5138998;27;20266;-66
2022/12/12 02:50:25;;;;;;;15.63;6.43;;;;;;;3.17;60.56;100096.22;5138528;27;20209;-67
2022/12/12 02:52:53;;;;;;;15.47;6.60;;;;;;;3.11;60.49;100105.38;5139610;27;20654;-67
2022/12/12 02:55:21;;;;;;;14.47;6.60;;;;;;;3.06;60.84;100117.97;5135678;27;20553;-67
2022/12/12 02:57:51;;;;;;;18.37;8.50;;;;;;;3.05;61.10;100110.22;5132620;27;20209;-67
2022/12/12 03:00:20;;;;;;;13.50;6.50;;;;;;;3.06;61.05;100114.50;5130121;27;20261;-67
2022/12/12 03:09:16;;;;;;;14.70;7.10;;;;;;;3.45;60.31;100105.56;5137784;27;20206;-68
2022/12/12 03:11:55;;;;;;;14.43;6.20;;;;;;;3.63;59.83;100107.66;5132320;27;20315;-67
2022/12/12 03:14:27;;;;;;;13.60;6.20;;;;;;;3.76;59.41;100105.84;5141754;27;20238;-67
2022/12/12 03:17:02;;;;;;;13.80;7.20;;;;;;;3.86;58.93;100105.16;5142148;27;20218;-67
2022/12/12 03:19:42;;;;;;;15.90;7.07;;;;;;;3.95;58.52;100105.31;5137407;27;20201;-67
2022/12/12 03:22:14;;;;;;;13.90;6.73;;;;;;;3.97;58.42;100106.00;5131895;27;20339;-67
2022/12/12 03:24:48;;;;;;;13.07;6.67;;;;;;;3.97;58.77;100106.00;5131297;27;20220;-67
2022/12/12 03:27:20;;;;;;;14.83;6.73;;;;;;;3.85;58.79;100104.31;5137441;27;20205;-67
2022/12/12 03:29:53;;;;;;;13.43;6.37;;;;;;;3.66;59.01;100109.25;5143402;27;20292;-67
2022/12/12 03:32:27;;;;;;;14.60;7.10;;;;;;;3.47;59.51;100098.41;5139364;27;20221;-67
2022/12/12 03:35:00;;;;;;;15.60;7.20;;;;;;;3.51;59.99;100108.59;5129958;27;20717;-67
2022/12/12 03:37:31;;;;;;;19.57;6.90;;;;;;;3.53;59.92;100103.22;5136705;27;20211;-67
2022/12/12 03:40:03;;;;;;;16.17;7.00;;;;;;;3.47;60.25;100103.66;5131646;27;20244;-68
2022/12/12 03:42:38;;;;;;;15.20;6.60;;;;;;;3.51;59.91;100099.88;5135202;27;20202;-67
2022/12/12 03:45:11;;;;;;;14.40;6.43;;;;;;;3.49;60.29;100094.75;5141596;27;20226;-67
2022/12/12 03:47:49;;;;;;;14.33;6.77;;;;;;;3.55;60.42;100096.06;5142324;27;20866;-68
2022/12/12 03:50:20;;;;;;;14.87;7.03;;;;;;;3.57;60.19;100096.81;5133796;27;20206;-67
2022/12/12 03:52:57;;;;;;;15.30;6.80;;;;;;;3.64;60.22;100100.63;5150546;27;20237;-67
2022/12/12 03:55:29;;;;;;;12.90;6.77;;;;;;;3.75;59.73;100098.06;5138547;27;20584;-68
2022/12/12 03:58:01;;;;;;;17.30;6.53;;;;;;;3.74;59.19;100094.63;5135646;27;20571;-67
2022/12/12 04:00:31;;;;;;;15.67;6.53;;;;;;;3.72;59.37;100093.03;5142432;27;20205;-68
2022/12/12 04:03:07;;;;;;;15.00;6.63;;;;;;;3.57;59.56;100095.03;5144679;27;20222;-67
2022/12/12 04:06:25;;;;;;;16.27;6.93;;;;;;;3.34;60.33;100095.88;5143440;27;20228;-68
2022/12/12 04:08:33;;;;;;;18.07;7.17;;;;;;;3.33;60.66;100096.81;5135592;27;20296;-69
2022/12/12 04:14:07;;;;;;;16.00;6.80;;;;;;;3.20;61.20;100089.00;5137354;27;20219;-67
2022/12/12 04:16:39;;;;;;;15.93;6.97;;;;;;;3.32;61.47;100101.22;5143347;27;20206;-68
2022/12/12 04:23:13;;;;;;;16.37;6.87;;;;;;;3.42;61.31;100093.53;5144987;27;20332;-68
2022/12/12 04:25:05;;;;;;;17.17;6.57;;;;;;;3.50;61.05;100092.97;5088466;27;20234;-67
2022/12/12 04:27:40;;;;;;;23.30;8.03;;;;;;;3.50;61.00;100099.03;5142956;27;20730;-67
2022/12/12 04:30:11;;;;;;;15.57;6.37;;;;;;;3.38;61.04;100095.53;5139748;27;20541;-68
2022/12/12 04:32:44;;;;;;;14.83;6.53;;;;;;;3.28;61.33;100102.38;5141193;27;20768;-68
2022/12/12 04:35:15;;;;;;;17.27;6.83;;;;;;;3.35;61.51;100095.75;5128452;27;20212;-67
2022/12/12 04:37:47;;;;;;;15.87;7.20;;;;;;;3.33;61.26;100102.91;5141649;27;20209;-68
2022/12/12 04:40:20;;;;;;;15.27;6.70;;;;;;;3.14;61.56;100099.09;5133709;27;20214;-68
2022/12/12 04:42:54;;;;;;;15.33;6.13;;;;;;;3.03;61.89;100102.47;5140898;27;20204;-68
2022/12/12 04:45:28;;;;;;;16.47;6.77;;;;;;;2.80;62.87;100113.72;5140380;27;20892;-68
2022/12/12 04:47:58;;;;;;;15.57;7.00;;;;;;;2.75;63.63;100110.59;5141465;27;20644;-67
2022/12/12 04:50:29;;;;;;;17.33;7.70;;;;;;;2.82;63.84;100109.19;5142903;27;20659;-67
2022/12/12 04:53:01;;;;;;;16.50;6.67;;;;;;;2.93;63.80;100115.38;5141621;27;20214;-68
2022/12/12 04:55:32;;;;;;;22.27;7.23;;;;;;;2.92;64.07;100113.69;5144909;27;20213;-68
2022/12/12 04:58:04;;;;;;;13.30;6.97;;;;;;;3.05;63.49;100107.59;5141751;27;20559;-68
2022/12/12 05:00:38;;;;;;;16.93;7.07;;;;;;;3.00;63.64;100108.75;5141509;27;20287;-67
2022/12/12 05:03:11;;;;;;;20.07;7.53;;;;;;;2.98;63.95;100109.81;5141194;27;20274;-67
2022/12/12 05:05:44;;;;;;;14.83;7.07;;;;;;;3.14;63.95;100106.94;5142345;27;20229;-68
2022/12/12 05:08:20;;;;;;;21.13;8.17;;;;;;;3.14;63.48;100112.19;5140367;27;20197;-68
2022/12/12 05:10:53;;;;;;;16.50;7.10;;;;;;;3.14;63.58;100117.41;5130278;27;20207;-68
2022/12/12 05:13:23;;;;;;;17.77;7.67;;;;;;;3.07;63.86;100132.75;5138783;27;20206;-66
2022/12/12 05:15:53;;;;;;;17.70;7.90;;;;;;;3.06;63.99;100130.22;5144640;27;20211;-67
2022/12/12 05:18:22;;;;;;;20.43;7.87;;;;;;;3.07;63.90;100122.28;5145840;27;20200;-67
2022/12/12 05:20:50;;;;;;;16.73;7.90;;;;;;;3.24;63.73;100128.91;5140606;27;20290;-67
2022/12/12 05:23:19;;;;;;;17.40;8.23;;;;;;;3.28;63.57;100131.19;5138185;27;20203;-67
2022/12/12 05:25:47;;;;;;;16.67;8.07;;;;;;;3.27;63.31;100129.53;5134766;27;20263;-67
2022/12/12 05:28:15;;;;;;;16.87;7.20;;;;;;;3.26;63.28;100138.31;5136289;27;20791;-67
2022/12/12 05:30:43;;;;;;;20.23;8.20;;;;;;;3.42;63.26;100137.25;5138530;27;20207;-68
2022/12/12 05:33:10;;;;;;;17.47;8.00;;;;;;;3.37;62.88;100141.03;5140319;27;20642;-68
2022/12/12 05:35:38;;;;;;;17.50;7.17;;;;;;;3.45;62.59;100139.63;5146230;27;20251;-68
2022/12/12 05:38:06;;;;;;;14.83;7.10;;;;;;;3.56;62.15;100135.28;5132345;27;20726;-68
2022/12/12 05:40:35;;;;;;;21.40;8.47;;;;;;;3.41;62.00;100131.16;5139757;27;20397;-68
2022/12/12 05:43:03;;;;;;;16.43;7.40;;;;;;;3.49;62.34;100139.31;5140874;27;20214;-68
2022/12/12 05:45:31;;;;;;;19.47;8.67;;;;;;;3.48;62.20;100144.66;5140236;27;20949;-67
2022/12/12 05:47:59;;;;;;;18.47;8.80;;;;;;;3.36;62.56;100149.00;5137195;27;20224;-68
2022/12/12 05:50:26;;;;;;;18.80;8.50;;;;;;;3.32;63.01;100143.16;5138820;27;20220;-68
2022/12/12 05:52:54;;;;;;;17.20;7.17;;;;;;;3.31;62.76;100144.09;5144798;27;20203;-68
2022/12/12 05:55:22;;;;;;;18.07;8.43;;;;;;;3.27;63.00;100149.66;5140196;27;20207;-68
2022/12/12 05:57:51;;;;;;;20.10;8.50;;;;;;;3.17;63.08;100152.09;5140805;27;20210;-68
2022/12/12 06:00:20;;;;;;;19.43;7.77;;;;;;;3.14;63.53;100154.94;5135142;27;20196;-69
2022/12/12 06:02:48;;;;;;;18.73;8.00;;;;;;;3.14;63.55;100154.94;5144628;27;20254;-68
2022/12/12 06:05:16;;;;;;;19.50;8.57;;;;;;;3.14;63.67;100154.94;5132214;27;20258;-68
2022/12/12 06:07:44;;;;;;;20.20;9.17;;;;;;;3.13;63.55;100153.25;5137749;27;20210;-68
2022/12/12 06:10:12;;;;;;;20.13;8.90;;;;;;;3.15;63.59;100158.41;5131321;27;20664;-67
2022/12/12 06:12:40;;;;;;;17.93;8.40;;;;;;;3.22;63.43;100157.00;5140898;27;20226;-67
2022/12/12 06:15:10;;;;;;;24.53;9.40;;;;;;;3.33;63.04;100155.31;5143047;27;20548;-67
2022/12/12 06:17:38;;;;;;;20.73;8.90;;;;;;;3.28;62.77;100162.66;5139485;27;20259;-67
2022/12/12 06:20:07;;;;;;;19.70;8.90;;;;;;;3.15;62.73;100150.53;5135882;27;20219;-67
2022/12/12 06:22:35;;;;;;;24.20;9.27;;;;;;;3.23;62.83;100156.91;5141100;27;20199;-67
2022/12/12 06:25:03;;;;;;;23.73;9.40;;;;;;;3.35;62.18;100163.88;5141920;27;20642;-68
2022/12/12 06:27:31;;;;;;;20.40;9.67;;;;;;;3.27;62.25;100168.84;5144882;27;20235;-67
2022/12/12 06:29:58;;;;;;;18.93;9.03;;;;;;;3.23;62.62;100170.00;5135416;27;20206;-68
2022/12/12 06:32:27;;;;;;;21.37;10.50;;;;;;;3.24;62.54;100166.44;5128653;27;20224;-67
2022/12/12 06:34:55;;;;;;;20.13;9.47;;;;;;;3.19;62.36;100171.16;5144054;27;20211;-67
2022/12/12 06:37:23;;;;;;;20.90;9.77;;;;;;;3.14;62.64;100175.06;5135700;27;20291;-67
2022/12/12 06:39:51;;;;;;;22.70;9.80;;;;;;;3.10;63.10;100174.44;5132054;27;20203;-67
2022/12/12 06:42:19;;;;;;;21.47;9.33;;;;;;;3.17;63.36;100180.91;5145271;27;20206;-68
2022/12/12 06:44:46;;;;;;;22.27;9.30;;;;;;;3.28;62.96;100170.50;5128535;27;22132;-67
2022/12/12 06:47:14;;;;;;;19.10;9.47;;;;;;;3.39;62.30;100175.00;5144417;27;20250;-68
2022/12/12 06:49:43;;;;;;;21.27;8.80;;;;;;;3.38;62.21;100174.16;5137055;27;20257;-69
2022/12/12 06:52:11;;;;;;;24.27;9.87;;;;;;;3.36;61.91;100178.66;5123546;27;20218;-67
2022/12/12 06:54:39;;;;;;;24.70;10.53;;;;;;;3.38;62.16;100186.41;5140024;27;20208;-68
2022/12/12 06:57:07;;;;;;;23.10;9.90;;;;;;;3.49;62.00;100181.25;5140305;27;20279;-67
2022/12/12 06:59:35;;;;;;;20.73;9.10;;;;;;;3.52;61.71;100183.63;5143607;27;20241;-68
2022/12/12 07:02:02;;;;;;;21.57;9.53;;;;;;;3.42;61.94;100189.66;5145725;27;20225;-67
2022/12/12 07:04:30;;;;;;;22.30;9.47;;;;;;;3.36;61.91;100188.31;5147228;27;20198;-68
2022/12/12 07:06:59;;;;;;;19.17;9.03;;;;;;;3.16;62.63;100202.84;5140283;27;20247;-68
2022/12/12 07:09:28;;;;;;;26.87;10.10;;;;;;;3.20;62.93;100192.97;5130624;27;20211;-68
2022/12/12 07:11:55;;;;;;;23.60;9.20;;;;;;;3.11;63.28;100193.59;5137080;27;20237;-68
2022/12/12 07:14:23;;;;;;;25.87;8.47;;;;;;;2.97;63.82;100194.56;5148049;27;20210;-67
2022/12/12 07:16:51;;;;;;;21.47;9.93;;;;;;;2.98;64.07;100191.03;5140832;27;20203;-67
2022/12/12 07:19:18;;;;;;;20.07;8.70;;;;;;;3.06;64.21;100201.81;5146417;27;20229;-67
2022/12/12 07:21:46;;;;;;;21.97;9.23;;;;;;;3.08;64.05;100199.88;5142144;27;20202;-67
2022/12/12 07:24:15;;;;;;;24.90;10.53;;;;;;;3.01;64.67;100204.72;5145149;27;20209;-67
2022/12/12 07:26:43;;;;;;;24.50;11.17;;;;;;;3.12;64.77;100211.84;5146343;27;20222;-66
2022/12/12 07:29:11;;;;;;;23.07;10.87;;;;;;;3.05;64.89;100215.84;5139651;27;20328;-68
2022/12/12 07:31:39;;;;;;;26.23;11.70;;;;;;;2.98;65.31;100209.34;5143199;27;20289;-67
2022/12/12 07:34:06;;;;;;;26.27;11.10;;;;;;;2.94;65.38;100221.81;5136048;27;20219;-68
2022/12/12 07:36:34;;;;;;;32.77;13.07;;;;;;;2.85;65.74;100221.59;5145223;27;20221;-67
2022/12/12 07:39:02;;;;;;;30.23;12.37;;;;;;;2.72;66.38;100223.41;5139040;27;20215;-68
2022/12/12 07:41:35;;;;;;;33.67;12.93;;;;;;;2.71;67.06;100224.34;5142636;27;20213;-67
2022/12/12 07:44:03;;;;;;;34.43;12.57;;;;;;;2.78;66.86;100229.03;5149019;27;20299;-68
2022/12/12 07:46:31;;;;;;;31.60;12.90;;;;;;;2.81;66.91;100233.25;5147820;27;20250;-62
2022/12/12 07:48:59;;;;;;;31.80;13.33;;;;;;;2.82;66.91;100237.50;5152229;27;20213;-63
2022/12/12 07:51:27;;;;;;;32.97;13.70;;;;;;;2.78;67.31;100236.91;5153916;27;20580;-63
2022/12/12 07:53:54;;;;;;;39.07;13.80;;;;;;;2.79;67.92;100242.97;5149958;27;20268;-64
2022/12/12 07:56:22;;;;;;;37.07;13.40;;;;;;;2.92;67.70;100236.78;5149059;27;20674;-63
2022/12/12 07:58:54;;;;;;;36.23;14.40;;;;;;;3.06;67.16;100241.09;5153344;27;20206;-62
2022/12/12 08:01:24;;;;;;;33.97;13.20;;;;;;;3.00;67.38;100244.97;5152309;27;20749;-63
2022/12/12 08:04:01;;;;;;;30.27;14.17;;;;;;;2.92;67.91;100241.19;5155138;27;20570;-63
2022/12/12 08:06:28;;;;;;;31.87;13.80;;;;;;;2.95;67.76;100243.59;5154008;27;20212;-64
2022/12/12 08:08:56;;;;;;;32.97;14.87;;;;;;;2.89;68.54;100246.66;5151627;27;20229;-63
2022/12/12 08:11:25;;;;;;;34.17;15.20;;;;;;;2.80;68.81;100236.81;5152598;27;20229;-64
2022/12/12 08:13:54;;;;;;;38.73;14.40;;;;;;;2.82;69.07;100246.22;5150392;27;20210;-64
2022/12/12 08:16:24;;;;;;;40.93;16.13;;;;;;;2.78;69.15;100246.53;5149363;27;20202;-64
2022/12/12 08:18:54;;;;;;;34.43;15.23;;;;;;;2.79;69.41;100245.59;5153106;27;20296;-63
2022/12/12 08:21:22;;;;;;;38.50;15.20;;;;;;;2.78;69.51;100247.38;5146220;27;20301;-64
2022/12/12 08:23:56;;;;;;;35.23;15.17;;;;;;;2.98;69.78;100253.88;5134409;27;20659;-64
2022/12/12 08:26:24;;;;;;;35.33;14.07;;;;;;;3.09;69.50;100256.59;5145457;27;20235;-64
2022/12/12 08:28:55;;;;;;;38.87;14.13;;;;;;;3.28;68.73;100245.66;5142069;27;20238;-63
2022/12/12 08:31:23;;;;;;;33.10;14.23;;;;;;;3.27;67.89;100252.69;5141393;27;20568;-62
2022/12/12 08:33:51;;;;;;;33.13;13.23;;;;;;;3.31;67.43;100258.56;5146668;27;20231;-63
2022/12/12 08:36:22;;;;;;;32.60;13.37;;;;;;;3.39;66.74;100254.47;5140216;27;20216;-63
2022/12/12 08:38:51;;;;;;;29.80;13.43;;;;;;;3.41;66.08;100254.38;5136491;27;20216;-64
2022/12/12 08:41:19;;;;;;;30.27;12.97;;;;;;;3.44;65.89;100255.91;5142268;27;20211;-64
2022/12/12 08:43:47;;;;;;;28.73;13.17;;;;;;;3.48;65.48;100262.63;5151582;27;20206;-64
2022/12/12 08:46:17;;;;;;;33.10;11.77;;;;;;;3.50;64.96;100258.97;5141254;27;20202;-64
2022/12/12 08:48:46;;;;;;;28.10;11.97;;;;;;;3.48;64.73;100268.72;5151083;27;20199;-64
2022/12/12 08:51:14;;;;;;;27.77;12.90;;;;;;;3.39;65.33;100259.72;5155274;27;20218;-64
2022/12/12 08:53:44;;;;;;;34.17;13.13;;;;;;;3.43;65.49;100275.22;5136860;27;20199;-63
2022/12/12 08:56:12;;;;;;;29.33;12.93;;;;;;;3.54;65.35;100272.66;5140149;27;20299;-63
2022/12/12 08:58:40;;;;;;;31.73;14.17;;;;;;;3.65;65.06;100280.63;5144000;27;20216;-64
2022/12/12 09:01:11;;;;;;;33.40;13.47;;;;;;;3.76;64.52;100278.09;5146271;27;20241;-64
2022/12/12 09:03:40;;;;;;;33.20;14.30;;;;;;;3.82;64.01;100277.63;5151868;27;20237;-64
2022/12/12 09:06:10;;;;;;;30.23;13.30;;;;;;;3.81;63.49;100275.13;5153031;27;20327;-63
2022/12/12 09:08:38;;;;;;;32.17;14.63;;;;;;;3.65;63.86;100280.63;5146556;27;20699;-62
2022/12/12 09:11:06;;;;;;;31.77;13.73;;;;;;;3.57;64.61;100283.78;5137461;27;20305;-64
2022/12/12 09:13:34;;;;;;;39.87;15.37;;;;;;;3.52;64.82;100285.88;5138329;27;20771;-63
2022/12/12 09:16:02;;;;;;;31.10;13.70;;;;;;;3.58;64.87;100287.25;5137731;27;20209;-63
2022/12/12 09:18:30;;;;;;;29.67;13.57;;;;;;;3.61;65.05;100295.72;5147780;27;20207;-64
2022/12/12 09:20:59;;;;;;;37.20;15.67;;;;;;;3.53;65.51;100286.72;5156072;27;20835;-64
2022/12/12 09:23:28;;;;;;;38.00;15.17;;;;;;;3.50;66.21;100297.44;5144168;27;20203;-63
2022/12/12 09:25:56;;;;;;;42.47;16.40;;;;;;;3.61;65.86;100292.25;5148796;27;20217;-64
2022/12/12 09:28:25;;;;;;;34.93;15.70;;;;;;;3.75;66.04;100294.75;5140716;27;20237;-64
2022/12/12 09:30:53;;;;;;;36.43;15.10;;;;;;;4.00;65.49;100294.69;5148239;27;20210;-65
2022/12/12 09:33:21;;;;;;;36.87;14.50;;;;;;;4.23;64.50;100297.41;5146536;27;20221;-64
2022/12/12 09:35:57;;;;;;;40.17;16.00;;;;;;;4.36;63.55;100299.03;5147874;27;21130;-65
2022/12/12 09:38:27;;;;;;;34.07;14.43;;;;;;;4.49;62.47;100296.34;5143976;27;20197;-64
2022/12/12 09:40:58;;;;;;;36.17;15.73;;;;;;;4.59;61.85;100292.06;5147100;27;20210;-66
2022/12/12 09:43:29;;;;;;;40.37;16.87;;;;;;;4.59;61.28;100299.13;5147792;27;20208;-63
2022/12/12 09:45:58;;;;;;;35.07;15.57;;;;;;;4.83;61.11;100282.38;5123646;27;20212;-64
2022/12/12 09:48:38;;;;;;;30.73;13.20;;;;;;;5.08;60.37;100291.03;5148911;27;20717;-64
2022/12/12 09:51:06;;;;;;;33.90;15.13;;;;;;;5.09;59.78;100288.28;5135814;27;20213;-63
2022/12/12 09:53:36;;;;;;;30.57;14.17;;;;;;;5.02;59.68;100284.41;5142557;27;20645;-64
2022/12/12 09:56:10;;;;;;;29.73;13.97;;;;;;;5.09;59.57;100277.75;5150965;27;20219;-65
2022/12/12 09:58:43;;;;;;;30.47;13.20;;;;;;;5.03;59.00;100283.47;5152726;27;20231;-65
2022/12/12 10:01:25;;;;;;;30.23;12.13;;;;;;;4.89;58.96;100271.41;5134778;27;20212;-65
2022/12/12 10:04:04;;;;;;;29.37;11.97;;;;;;;4.96;58.88;100260.41;5158395;27;20260;-64
2022/12/12 10:06:40;;;;;;;26.07;12.17;;;;;;;5.42;57.96;100257.69;5140605;27;20193;-64
2022/12/12 10:09:30;;;;;;;26.80;11.57;;;;;;;6.29;54.38;100262.06;5143992;27;20232;-64
2022/12/12 10:12:00;;;;;;;26.60;10.57;;;;;;;7.16;51.97;100268.75;5145970;27;20224;-64
2022/12/12 10:14:38;;;;;;;23.57;10.97;;;;;;;7.54;50.82;100281.31;5149230;27;20274;-64
2022/12/12 10:17:13;;;;;;;20.80;10.93;;;;;;;7.42;50.85;100292.91;5144882;27;20938;-64
2022/12/12 10:19:47;;;;;;;24.60;11.83;;;;;;;7.35;50.94;100273.31;5143955;27;20220;-65
2022/12/12 10:22:23;;;;;;;35.77;18.00;;;;;;;7.12;51.17;100277.91;5140632;27;20233;-64
2022/12/12 10:24:57;;;;;;;29.03;13.67;;;;;;;6.60;52.16;100278.81;5144200;27;20201;-64
2022/12/12 10:27:25;;;;;;;27.60;13.40;;;;;;;6.04;53.44;100287.78;5141354;27;20200;-66
2022/12/12 10:29:53;;;;;;;27.80;11.53;;;;;;;7.10;52.41;100291.22;5144055;27;20211;-65
2022/12/12 10:32:36;;;;;;;20.33;10.30;;;;;;;8.93;46.98;100296.06;5145539;27;20206;-65
2022/12/12 10:35:18;;;;;;;26.87;13.70;;;;;;;9.84;44.90;100279.47;5145266;27;20603;-65
2022/12/12 10:38:06;;;;;;;28.83;14.67;;;;;;;8.84;45.77;100294.28;5142692;27;20274;-64
2022/12/12 10:40:47;;;;;;;25.93;13.20;;;;;;;7.77;47.96;100290.69;5138489;27;20602;-64
2022/12/12 10:43:21;;;;;;;21.17;12.97;;;;;;;7.84;48.96;100289.16;5147111;27;20203;-65
2022/12/12 10:46:06;;;;;;;20.10;10.83;;;;;;;8.82;46.69;100296.22;5143858;27;20201;-64
2022/12/12 10:48:34;;;;;;;22.13;11.27;;;;;;;8.53;46.89;100297.06;5147057;27;20220;-66
2022/12/12 10:51:05;;;;;;;21.23;11.17;;;;;;;8.02;47.19;100296.44;5144965;27;20298;-65
2022/12/12 10:53:34;;;;;;;21.27;10.97;;;;;;;7.34;48.84;100292.72;5151262;27;20292;-65
2022/12/12 10:56:07;;;;;;;19.73;11.60;;;;;;;6.91;50.02;100298.19;5153758;27;20661;-66
2022/12/12 10:58:38;;;;;;;21.30;11.53;;;;;;;6.81;50.40;100295.47;5156427;27;20227;-65
2022/12/12 11:01:12;;;;;;;24.73;12.73;;;;;;;6.89;50.86;100285.13;5153232;27;20203;-64
2022/12/12 11:03:44;;;;;;;21.40;12.00;;;;;;;7.12;50.69;100281.38;5146243;27;20198;-65
2022/12/12 11:06:15;;;;;;;21.87;11.43;;;;;;;7.50;49.91;100274.59;5148300;27;20218;-64
2022/12/12 11:08:55;;;;;;;23.07;10.83;;;;;;;8.00;48.32;100278.09;5148823;27;20211;-65
2022/12/12 11:11:25;;;;;;;21.87;11.23;;;;;;;9.03;46.31;100275.75;5149983;27;20219;-65
2022/12/12 11:13:55;;;;;;;23.50;11.50;;;;;;;9.87;44.12;100268.56;5138029;27;20695;-64
2022/12/12 11:16:24;;;;;;;19.17;11.30;;;;;;;9.61;43.66;100267.59;5145911;27;20197;-64
2022/12/12 11:19:03;;;;;;;21.43;11.00;;;;;;;8.92;44.95;100270.59;5147410;27;20222;-64
2022/12/12 11:21:33;;;;;;;20.83;10.87;;;;;;;9.11;45.10;100275.84;5145346;27;20193;-65
2022/12/12 11:24:06;;;;;;;22.77;10.80;;;;;;;9.46;44.62;100274.34;5141825;27;20302;-65
2022/12/12 11:26:44;;;;;;;19.83;11.13;;;;;;;9.35;44.10;100272.72;5138107;27;20223;-67
2022/12/12 11:29:28;;;;;;;20.60;10.90;;;;;;;8.76;44.99;100280.94;5151282;27;20351;-65
2022/12/12 11:31:57;;;;;;;18.53;8.83;;;;;;;8.04;45.92;100271.56;5149944;27;20197;-65
2022/12/12 11:34:27;;;;;;;18.00;8.67;;;;;;;7.69;46.27;100271.19;5149294;27;20630;-66
2022/12/12 11:36:58;;;;;;;17.77;8.20;;;;;;;7.46;47.17;100274.06;5142039;27;20277;-65
2022/12/12 11:39:28;;;;;;;16.57;8.87;;;;;;;7.28;47.11;100272.16;5145587;27;20832;-65
2022/12/12 11:42:00;;;;;;;19.53;9.53;;;;;;;7.00;47.37;100271.88;5143513;27;20212;-65
2022/12/12 11:44:34;;;;;;;17.83;9.40;;;;;;;6.67;48.58;100274.72;5153920;27;20215;-65
2022/12/12 11:47:21;;;;;;;19.87;9.37;;;;;;;6.67;49.09;100270.28;5148392;27;20216;-65
2022/12/12 11:49:54;;;;;;;22.17;10.97;;;;;;;6.66;49.11;100270.41;5157199;27;20699;-66
2022/12/12 11:52:23;;;;;;;21.47;11.20;;;;;;;6.55;49.80;100273.94;5145007;27;20271;-65